createdAt,value
2022-10-10T00:00:59.978Z,100585.59
2022-10-10T00:03:27.909Z,100592.00
2022-10-10T00:05:55.884Z,100599.72
2022-10-10T00:08:23.871Z,100598.72
2022-10-10T00:10:51.828Z,100603.94
2022-10-10T00:13:19.886Z,100598.09
2022-10-10T00:15:49.282Z,100606.81
2022-10-10T00:18:17.444Z,100603.78
2022-10-10T00:20:45.655Z,100602.44
2022-10-10T00:23:13.596Z,100604.63
2022-10-10T00:25:41.526Z,100606.81
2022-10-10T00:28:09.512Z,100598.56
2022-10-10T00:30:37.504Z,100601.44
2022-10-10T00:33:06.845Z,100606.50
2022-10-10T00:35:34.879Z,100602.50
2022-10-10T00:38:02.857Z,100603.66
2022-10-10T00:40:30.792Z,100610.22
2022-10-10T00:42:58.763Z,100603.16
2022-10-10T00:45:32.479Z,100609.56
2022-10-10T00:48:03.175Z,100605.97
2022-10-10T00:50:32.999Z,100603.28
2022-10-10T00:53:00.967Z,100606.81
2022-10-10T00:55:28.944Z,100609.50
2022-10-10T00:57:56.896Z,100619.50
2022-10-10T01:00:24.852Z,100612.25
2022-10-10T01:02:53.203Z,100620.63
2022-10-10T01:05:21.416Z,100622.66
2022-10-10T01:07:50.727Z,100625.22
2022-10-10T01:10:19.309Z,100601.78
2022-10-10T01:12:54.434Z,100623.53
2022-10-10T01:15:26.556Z,100621.34
2022-10-10T01:17:56.661Z,100625.53
2022-10-10T01:20:58.890Z,100625.06
2022-10-10T01:24:12.340Z,100632.97
2022-10-10T01:26:59.284Z,100644.94
2022-10-10T01:29:30.632Z,100642.22
2022-10-10T01:32:03.869Z,100644.25
2022-10-10T01:34:34.297Z,100644.94
2022-10-10T01:37:05.569Z,100642.06
2022-10-10T01:39:40.212Z,100639.88
2022-10-10T01:42:09.218Z,100638.13
2022-10-10T01:44:38.533Z,100641.50
2022-10-10T01:47:06.453Z,100642.50
2022-10-10T01:49:35.109Z,100648.56
2022-10-10T01:52:08.626Z,100652.25
2022-10-10T01:54:40.669Z,100636.75
2022-10-10T01:57:17.106Z,100641.50
2022-10-10T01:59:50.195Z,100649.19
2022-10-10T02:02:23.094Z,100650.03
2022-10-10T02:04:52.394Z,100650.88
2022-10-10T02:07:22.993Z,100639.94
2022-10-10T02:09:50.986Z,100651.56
2022-10-10T02:12:18.974Z,100648.19
2022-10-10T02:14:49.609Z,100658.41
2022-10-10T02:17:17.545Z,100648.50
2022-10-10T02:19:49.798Z,100646.31
2022-10-10T02:22:17.760Z,100627.22
2022-10-10T02:24:45.715Z,100646.16
2022-10-10T02:27:17.209Z,100651.69
2022-10-10T02:29:45.185Z,100655.22
2022-10-10T02:32:16.023Z,100656.88
2022-10-10T02:34:46.010Z,100629.91
2022-10-10T02:37:14.216Z,100665.47
2022-10-10T02:39:43.267Z,100667.63
2022-10-10T02:42:11.300Z,100668.53
2022-10-10T02:44:39.241Z,100671.56
2022-10-10T02:47:07.239Z,100671.72
2022-10-10T02:49:36.622Z,100681.34
2022-10-10T02:52:04.642Z,100669.00
2022-10-10T02:54:32.604Z,100680.50
2022-10-10T02:57:00.565Z,100682.19
2022-10-10T02:59:28.525Z,100685.22
2022-10-10T03:01:56.456Z,100688.91
2022-10-10T03:04:24.398Z,100700.03
2022-10-10T03:06:54.448Z,100707.41
2022-10-10T03:09:22.545Z,100702.69
2022-10-10T03:11:50.564Z,100705.38
2022-10-10T03:14:18.519Z,100705.00
2022-10-10T03:16:46.449Z,100703.31
2022-10-10T03:19:14.435Z,100705.66
2022-10-10T03:21:42.923Z,100707.28
2022-10-10T03:24:12.250Z,100702.25
2022-10-10T03:26:40.221Z,100704.41
2022-10-10T03:29:08.547Z,100714.69
2022-10-10T03:31:36.501Z,100708.59
2022-10-10T03:34:04.427Z,100709.59
2022-10-10T03:36:32.493Z,100715.97
2022-10-10T03:39:00.415Z,100714.97
2022-10-10T03:41:29.729Z,100724.38
2022-10-10T03:43:57.747Z,100719.13
2022-10-10T03:46:25.724Z,100722.16
2022-10-10T03:48:53.677Z,100723.63
2022-10-10T03:51:21.678Z,100716.59
2022-10-10T03:53:49.637Z,100716.91
2022-10-10T03:56:17.633Z,100708.78
2022-10-10T03:58:46.928Z,100717.00
2022-10-10T04:01:14.931Z,100716.91
2022-10-10T04:03:42.959Z,100716.34
2022-10-10T04:06:10.941Z,100718.91
2022-10-10T04:08:39.818Z,100720.34
2022-10-10T04:11:07.792Z,100714.38
2022-10-10T04:13:35.784Z,100721.44
2022-10-10T04:16:05.963Z,100718.91
2022-10-10T04:18:33.955Z,100711.63
2022-10-10T04:21:03.197Z,100726.06
2022-10-10T04:23:31.191Z,100716.66
2022-10-10T04:25:59.150Z,100712.69
2022-10-10T04:28:27.211Z,100713.97
2022-10-10T04:30:56.343Z,100714.97
2022-10-10T04:33:25.752Z,100710.97
2022-10-10T04:35:53.734Z,100718.91
2022-10-10T04:38:22.810Z,100718.34
2022-10-10T04:40:51.032Z,100715.50
2022-10-10T04:43:18.991Z,100719.41
2022-10-10T04:45:46.992Z,100724.19
2022-10-10T04:48:14.975Z,100729.47
2022-10-10T04:50:44.366Z,100732.88
2022-10-10T04:53:12.822Z,100734.13
2022-10-10T04:55:40.792Z,100731.44
2022-10-10T04:58:08.838Z,100731.59
2022-10-10T05:00:36.819Z,100729.69
2022-10-10T05:03:05.011Z,100732.78
2022-10-10T05:05:33.138Z,100726.16
2022-10-10T05:08:02.458Z,100725.16
2022-10-10T05:10:30.459Z,100725.16
2022-10-10T05:12:58.432Z,100736.94
2022-10-10T05:15:27.084Z,100730.50
2022-10-10T05:17:55.084Z,100742.59
2022-10-10T05:20:23.151Z,100745.81
2022-10-10T05:22:51.384Z,100742.50
2022-10-10T05:25:20.987Z,100733.97
2022-10-10T05:27:48.977Z,100749.63
2022-10-10T05:30:17.108Z,100754.59
2022-10-10T05:32:45.063Z,100747.97
2022-10-10T05:35:13.053Z,100764.06
2022-10-10T05:37:41.028Z,100754.91
2022-10-10T05:40:10.053Z,100764.53
2022-10-10T05:42:39.453Z,100767.06
2022-10-10T05:45:08.347Z,100769.59
2022-10-10T05:47:36.312Z,100769.81
2022-10-10T05:50:04.364Z,100776.72
2022-10-10T05:52:32.364Z,100776.72
2022-10-10T05:55:00.413Z,100771.94
2022-10-10T05:57:28.399Z,100778.59
2022-10-10T05:59:57.758Z,100782.88
2022-10-10T06:02:25.859Z,100787.25
2022-10-10T06:04:53.853Z,100789.72
2022-10-10T06:07:22.284Z,100787.16
2022-10-10T06:09:50.231Z,100793.72
2022-10-10T06:12:19.596Z,100786.78
2022-10-10T06:14:47.573Z,100798.47
2022-10-10T06:17:16.900Z,100795.09
2022-10-10T06:19:44.849Z,100801.38
2022-10-10T06:22:12.862Z,100804.31
2022-10-10T06:24:40.876Z,100808.13
2022-10-10T06:27:08.942Z,100799.97
2022-10-10T06:29:36.884Z,100798.13
2022-10-10T06:32:04.857Z,100810.16
2022-10-10T06:34:34.221Z,100802.22
2022-10-10T06:37:02.258Z,100811.56
2022-10-10T06:39:30.416Z,100799.88
2022-10-10T06:41:58.467Z,100802.94
2022-10-10T06:44:26.575Z,100804.31
2022-10-10T06:46:54.541Z,100808.06
2022-10-10T06:49:22.670Z,100797.47
2022-10-10T06:51:51.998Z,100803.16
2022-10-10T06:54:20.047Z,100805.47
2022-10-10T06:56:48.020Z,100805.59
2022-10-10T06:59:15.986Z,100795.91
2022-10-10T07:01:43.984Z,100797.53
2022-10-10T07:04:12.660Z,100796.56
2022-10-10T07:06:40.681Z,100793.75
2022-10-10T07:09:10.014Z,100797.59
2022-10-10T07:11:38.058Z,100793.63
2022-10-10T07:14:06.049Z,100791.59
2022-10-10T07:16:34.742Z,100790.34
2022-10-10T07:19:02.731Z,100797.16
2022-10-10T07:21:30.786Z,100787.59
2022-10-10T07:23:58.845Z,100783.38
2022-10-10T07:26:31.184Z,100788.25
2022-10-10T07:28:59.154Z,100792.56
2022-10-10T07:31:27.104Z,100796.34
2022-10-10T07:33:55.146Z,100794.97
2022-10-10T07:36:23.257Z,100782.25
2022-10-10T07:38:52.096Z,100782.97
2022-10-10T07:41:20.816Z,100781.69
2022-10-10T07:43:51.193Z,100774.97
2022-10-10T07:46:20.673Z,100782.34
2022-10-10T07:48:49.271Z,100776.53
2022-10-10T07:51:17.323Z,100779.50
2022-10-10T07:53:45.509Z,100775.94
2022-10-10T07:56:13.441Z,100780.97
2022-10-10T07:58:41.431Z,100776.97
2022-10-10T08:01:11.805Z,100785.78
2022-10-10T08:03:39.925Z,100772.78
2022-10-10T08:06:09.939Z,100781.63
2022-10-10T08:08:44.843Z,100777.41
2022-10-10T08:11:18.475Z,100783.88
2022-10-10T08:13:46.442Z,100782.00
2022-10-10T08:16:16.085Z,100779.47
2022-10-10T08:18:44.126Z,100780.28
2022-10-10T08:21:13.406Z,100776.47
2022-10-10T08:23:41.356Z,100778.75
2022-10-10T08:26:10.498Z,100775.66
2022-10-10T08:28:38.819Z,100768.47
2022-10-10T08:31:07.221Z,100764.22
2022-10-10T08:33:36.648Z,100757.53
2022-10-10T08:36:08.242Z,100768.91
2022-10-10T08:38:36.335Z,100757.66
2022-10-10T08:41:08.621Z,100751.72
2022-10-10T08:43:40.628Z,100756.00
2022-10-10T08:46:11.876Z,100764.69
2022-10-10T08:48:41.243Z,100757.44
2022-10-10T08:51:11.333Z,100746.75
2022-10-10T08:53:41.535Z,100758.97
2022-10-10T08:56:09.656Z,100768.53
2022-10-10T08:58:39.277Z,100765.53
2022-10-10T09:01:18.972Z,100767.56
2022-10-10T09:03:49.289Z,100757.38
2022-10-10T09:06:39.469Z,100765.63
2022-10-10T09:09:10.511Z,100762.56
2022-10-10T09:11:46.036Z,100770.66
2022-10-10T09:14:20.824Z,100756.47
2022-10-10T09:16:51.353Z,100733.66
2022-10-10T09:19:27.780Z,100753.56
2022-10-10T09:21:56.677Z,100740.50
2022-10-10T09:24:26.057Z,100728.34
2022-10-10T09:26:55.862Z,100734.38
2022-10-10T09:29:28.321Z,100735.44
2022-10-10T09:31:57.978Z,100741.69
2022-10-10T09:34:32.282Z,100727.56
2022-10-10T09:37:02.653Z,100739.38
2022-10-10T09:39:35.841Z,100735.38
2022-10-10T09:42:05.280Z,100732.97
2022-10-10T09:44:33.318Z,100730.63
2022-10-10T09:47:01.307Z,100721.38
2022-10-10T09:49:30.622Z,100721.34
2022-10-10T09:52:17.847Z,100730.16
2022-10-10T09:54:47.359Z,100724.34
2022-10-10T09:57:15.336Z,100727.34
2022-10-10T09:59:44.890Z,100717.00
2022-10-10T10:02:17.074Z,100715.47
2022-10-10T10:04:46.741Z,100716.41
2022-10-10T10:07:20.479Z,100706.38
2022-10-10T10:09:49.757Z,100712.94
2022-10-10T10:12:18.747Z,100703.16
2022-10-10T10:14:47.154Z,100696.84
2022-10-10T10:17:16.407Z,100691.09
2022-10-10T10:19:46.244Z,100694.50
2022-10-10T10:22:26.825Z,100702.88
2022-10-10T10:24:55.224Z,100694.59
2022-10-10T10:27:23.953Z,100690.81
2022-10-10T10:29:52.583Z,100680.56
2022-10-10T10:32:38.859Z,100678.94
2022-10-10T10:35:26.026Z,100688.94
2022-10-10T10:38:01.992Z,100675.63
2022-10-10T10:40:33.471Z,100666.31
2022-10-10T10:43:39.399Z,100665.28
2022-10-10T10:46:16.689Z,100661.84
2022-10-10T10:48:46.371Z,100656.16
2022-10-10T10:51:23.596Z,100655.81
2022-10-10T10:53:54.020Z,100656.47
2022-10-10T10:56:25.239Z,100654.97
2022-10-10T10:59:30.293Z,100644.94
2022-10-10T11:01:58.528Z,100650.00
2022-10-10T11:05:22.556Z,100653.50
2022-10-10T11:07:50.316Z,100646.81
2022-10-10T11:10:21.365Z,100637.50
2022-10-10T11:12:55.559Z,100632.88
2022-10-10T11:15:26.350Z,100629.06
2022-10-10T11:17:58.135Z,100626.31
2022-10-10T11:20:28.719Z,100626.88
2022-10-10T11:23:05.263Z,100628.63
2022-10-10T11:25:38.026Z,100620.50
2022-10-10T11:28:07.161Z,100621.34
2022-10-10T11:30:36.225Z,100621.25
2022-10-10T11:33:07.289Z,100624.63
2022-10-10T11:35:36.215Z,100631.91
2022-10-10T11:38:07.889Z,100627.47
2022-10-10T11:40:54.235Z,100619.50
2022-10-10T11:43:26.772Z,100614.38
2022-10-10T11:46:01.989Z,100616.25
2022-10-10T11:48:36.690Z,100607.44
2022-10-10T11:51:07.723Z,100614.63
2022-10-10T11:53:39.116Z,100606.31
2022-10-10T11:56:14.150Z,100609.06
2022-10-10T11:58:43.491Z,100606.34
2022-10-10T12:01:16.352Z,100607.94
2022-10-10T12:03:44.620Z,100606.28
2022-10-10T12:06:18.337Z,100601.72
2022-10-10T12:08:49.114Z,100600.16
2022-10-10T12:11:18.495Z,100594.28
2022-10-10T12:13:47.497Z,100580.16
2022-10-10T12:16:17.016Z,100581.41
2022-10-10T12:18:46.157Z,100578.91
2022-10-10T12:21:15.592Z,100575.78
2022-10-10T12:23:53.620Z,100573.69
2022-10-10T12:26:22.010Z,100578.44
2022-10-10T12:29:00.116Z,100572.47
2022-10-10T12:31:35.640Z,100572.97
2022-10-10T12:34:31.360Z,100572.50
2022-10-10T12:37:07.390Z,100560.84
2022-10-10T12:39:40.671Z,100578.81
2022-10-10T12:42:28.838Z,100576.38
2022-10-10T12:44:56.795Z,100572.50
2022-10-10T12:47:59.851Z,100558.88
2022-10-10T12:50:23.677Z,100568.53
2022-10-10T12:52:53.571Z,100582.06
2022-10-10T12:55:24.199Z,100588.25
2022-10-10T12:57:52.567Z,100568.09
2022-10-10T13:00:21.934Z,100580.94
2022-10-10T13:02:51.852Z,100574.75
2022-10-10T13:05:21.959Z,100570.81
2022-10-10T13:07:49.905Z,100572.16
2022-10-10T13:10:23.507Z,100576.31
2022-10-10T13:13:01.728Z,100562.41
2022-10-10T13:15:29.909Z,100563.66
2022-10-10T13:17:58.014Z,100567.66
2022-10-10T13:20:32.529Z,100569.09
2022-10-10T13:23:00.504Z,100570.25
2022-10-10T13:25:29.859Z,100569.75
2022-10-10T13:27:57.882Z,100563.53
2022-10-10T13:30:26.022Z,100560.00
2022-10-10T13:32:54.724Z,100548.00
2022-10-10T13:35:23.222Z,100544.50
2022-10-10T13:37:56.658Z,100543.34
2022-10-10T13:40:24.705Z,100556.50
2022-10-10T13:42:54.026Z,100549.31
2022-10-10T13:45:33.439Z,100556.50
2022-10-10T13:48:23.253Z,100550.34
2022-10-10T13:50:56.958Z,100544.84
2022-10-10T13:53:31.592Z,100550.34
2022-10-10T13:56:00.886Z,100553.56
2022-10-10T13:58:32.148Z,100549.25
2022-10-10T14:01:01.094Z,100548.59
2022-10-10T14:03:29.341Z,100547.66
2022-10-10T14:05:57.293Z,100542.81
2022-10-10T14:08:27.206Z,100549.06
2022-10-10T14:10:59.732Z,100548.47
2022-10-10T14:13:27.962Z,100547.78
2022-10-10T14:16:09.939Z,100542.38
2022-10-10T14:18:37.898Z,100535.03
2022-10-10T14:21:06.186Z,100533.88
2022-10-10T14:23:34.303Z,100544.47
2022-10-10T14:26:02.312Z,100541.41
2022-10-10T14:28:31.124Z,100538.25
2022-10-10T14:31:01.082Z,100528.94
2022-10-10T14:33:29.387Z,100533.97
2022-10-10T14:35:57.725Z,100535.56
2022-10-10T14:38:25.803Z,100518.03
2022-10-10T14:40:53.952Z,100534.09
2022-10-10T14:43:23.640Z,100536.84
2022-10-10T14:45:52.431Z,100531.38
2022-10-10T14:48:21.799Z,100539.00
2022-10-10T14:50:51.192Z,100532.09
2022-10-10T14:53:19.330Z,100537.31
2022-10-10T14:55:47.327Z,100500.59
2022-10-10T14:58:16.173Z,100538.84
2022-10-10T15:00:44.148Z,100526.97
2022-10-10T15:03:12.225Z,100538.41
2022-10-10T15:05:41.655Z,100537.06
2022-10-10T15:08:09.650Z,100536.66
2022-10-10T15:10:37.632Z,100536.06
2022-10-10T15:13:05.610Z,100530.47
2022-10-10T15:15:33.671Z,100536.59
2022-10-10T15:18:01.594Z,100536.69
2022-10-10T15:20:31.760Z,100541.88
2022-10-10T15:23:01.611Z,100532.19
2022-10-10T15:25:33.465Z,100527.00
2022-10-10T15:28:01.949Z,100511.22
2022-10-10T15:30:29.935Z,100528.66
2022-10-10T15:32:57.934Z,100533.38
2022-10-10T15:35:26.424Z,100524.19
2022-10-10T15:37:55.834Z,100531.56
2022-10-10T15:40:25.276Z,100530.88
2022-10-10T15:42:53.257Z,100525.69
2022-10-10T15:45:43.935Z,100517.63
2022-10-10T15:48:09.451Z,100526.25
2022-10-10T15:50:39.299Z,100523.78
2022-10-10T15:53:07.238Z,100528.31
2022-10-10T15:55:41.916Z,100532.34
2022-10-10T15:58:09.951Z,100531.78
2022-10-10T16:00:38.945Z,100534.56
2022-10-10T16:03:06.994Z,100533.53
2022-10-10T16:05:37.511Z,100537.94
2022-10-10T16:08:05.863Z,100537.31
2022-10-10T16:10:39.361Z,100531.53
2022-10-10T16:13:07.412Z,100539.34
2022-10-10T16:15:35.386Z,100514.06
2022-10-10T16:18:03.354Z,100532.53
2022-10-10T16:20:31.368Z,100540.91
2022-10-10T16:22:59.384Z,100546.41
2022-10-10T16:25:27.413Z,100551.47
2022-10-10T16:27:56.741Z,100541.44
2022-10-10T16:30:24.719Z,100542.72
2022-10-10T16:32:52.722Z,100539.34
2022-10-10T16:35:20.698Z,100524.53
2022-10-10T16:37:48.641Z,100553.63
2022-10-10T16:40:16.744Z,100523.09
2022-10-10T16:42:44.695Z,100555.72
2022-10-10T16:45:14.084Z,100549.44
2022-10-10T16:47:42.020Z,100550.91
2022-10-10T16:50:10.804Z,100558.38
2022-10-10T16:52:38.821Z,100548.94
2022-10-10T16:55:07.877Z,100555.19
2022-10-10T16:57:36.140Z,100556.84
2022-10-10T17:00:04.322Z,100558.66
2022-10-10T17:02:33.670Z,100565.50
2022-10-10T17:05:01.678Z,100529.63
2022-10-10T17:07:29.640Z,100543.25
2022-10-10T17:09:57.563Z,100542.75
2022-10-10T17:12:25.545Z,100550.81
2022-10-10T17:14:53.495Z,100545.16
2022-10-10T17:17:22.682Z,100549.44
2022-10-10T17:19:52.323Z,100550.25
2022-10-10T17:22:20.322Z,100557.28
2022-10-10T17:24:48.538Z,100555.81
2022-10-10T17:27:16.544Z,100556.22
2022-10-10T17:29:44.491Z,100559.31
2022-10-10T17:32:12.591Z,100555.31
2022-10-10T17:34:40.589Z,100562.81
2022-10-10T17:37:10.150Z,100560.25
2022-10-10T17:39:38.336Z,100561.00
2022-10-10T17:42:06.461Z,100558.06
2022-10-10T17:44:40.317Z,100561.94
2022-10-10T17:47:11.656Z,100552.13
2022-10-10T17:49:44.995Z,100562.97
2022-10-10T17:52:18.834Z,100563.16
2022-10-10T17:54:48.958Z,100529.38
2022-10-10T17:57:16.903Z,100555.63
2022-10-10T17:59:44.856Z,100561.66
2022-10-10T18:02:15.593Z,100562.97
2022-10-10T18:04:43.536Z,100553.81
2022-10-10T18:07:13.926Z,100560.63
2022-10-10T18:09:41.910Z,100564.28
2022-10-10T18:12:09.861Z,100569.69
2022-10-10T18:14:37.834Z,100568.84
2022-10-10T18:17:05.802Z,100566.34
2022-10-10T18:19:34.038Z,100556.13
2022-10-10T18:22:03.056Z,100555.50
2022-10-10T18:24:32.383Z,100562.97
2022-10-10T18:27:00.393Z,100561.28
2022-10-10T18:29:28.340Z,100561.28
2022-10-10T18:31:56.818Z,100563.16
2022-10-10T18:34:24.826Z,100569.25
2022-10-10T18:36:52.770Z,100568.41
2022-10-10T18:39:20.770Z,100568.00
2022-10-10T18:41:50.326Z,100566.75
2022-10-10T18:44:18.887Z,100563.47
2022-10-10T18:46:47.241Z,100568.53
2022-10-10T18:49:15.183Z,100561.19
2022-10-10T18:51:43.832Z,100565.59
2022-10-10T18:54:13.573Z,100568.53
2022-10-10T18:56:41.782Z,100565.81
2022-10-10T18:59:13.164Z,100567.69
2022-10-10T19:01:41.178Z,100566.84
2022-10-10T19:04:10.428Z,100558.06
2022-10-10T19:06:38.599Z,100558.00
2022-10-10T19:09:07.065Z,100562.69
2022-10-10T19:11:36.057Z,100574.50
2022-10-10T19:14:04.829Z,100575.34
2022-10-10T19:16:34.154Z,100576.00
2022-10-10T19:19:02.286Z,100569.28
2022-10-10T19:21:31.101Z,100579.94
2022-10-10T19:23:59.884Z,100562.59
2022-10-10T19:26:27.926Z,100577.97
2022-10-10T19:28:55.985Z,100579.31
2022-10-10T19:31:23.963Z,100575.59
2022-10-10T19:33:53.448Z,100577.25
2022-10-10T19:36:21.410Z,100577.19
2022-10-10T19:38:49.509Z,100565.63
2022-10-10T19:41:17.470Z,100580.34
2022-10-10T19:43:48.051Z,100578.47
2022-10-10T19:46:16.845Z,100583.84
2022-10-10T19:48:44.834Z,100576.06
2022-10-10T19:51:14.747Z,100569.81
2022-10-10T19:53:43.041Z,100577.09
2022-10-10T19:56:13.568Z,100586.66
2022-10-10T19:58:41.563Z,100592.00
2022-10-10T20:01:09.764Z,100569.41
2022-10-10T20:03:37.836Z,100582.38
2022-10-10T20:06:06.865Z,100579.88
2022-10-10T20:08:36.449Z,100574.56
2022-10-10T20:11:04.733Z,100576.06
2022-10-10T20:13:32.734Z,100566.25
2022-10-10T20:16:01.690Z,100554.22
2022-10-10T20:18:29.953Z,100567.22
2022-10-10T20:20:57.878Z,100561.72
2022-10-10T20:23:26.298Z,100565.63
2022-10-10T20:25:55.654Z,100575.16
2022-10-10T20:28:23.715Z,100570.13
2022-10-10T20:30:52.010Z,100561.72
2022-10-10T20:33:20.790Z,100567.13
2022-10-10T20:36:02.359Z,100559.59
2022-10-10T20:38:30.438Z,100555.75
2022-10-10T20:41:05.452Z,100564.44
2022-10-10T20:43:33.395Z,100556.22
2022-10-10T20:46:05.300Z,100553.50
2022-10-10T20:48:33.619Z,100558.66
2022-10-10T20:51:08.491Z,100559.56
2022-10-10T20:53:36.498Z,100561.50
2022-10-10T20:56:07.028Z,100556.81
2022-10-10T20:58:36.031Z,100557.19
2022-10-10T21:01:08.332Z,100563.81
2022-10-10T21:03:36.499Z,100561.00
2022-10-10T21:06:08.966Z,100562.38
2022-10-10T21:08:37.188Z,100557.63
2022-10-10T21:11:07.553Z,100558.06
2022-10-10T21:13:35.897Z,100556.50
2022-10-10T21:16:06.278Z,100543.72
2022-10-10T21:18:34.686Z,100557.06
2022-10-10T21:21:02.935Z,100552.34
2022-10-10T21:23:31.180Z,100532.50
2022-10-10T21:25:59.130Z,100550.31
2022-10-10T21:28:28.518Z,100544.25
2022-10-10T21:30:57.067Z,100545.00
2022-10-10T21:33:24.987Z,100546.56
2022-10-10T21:35:53.210Z,100545.56
2022-10-10T21:38:21.283Z,100533.97
2022-10-10T21:40:49.527Z,100544.03
2022-10-10T21:43:17.655Z,100546.75
2022-10-10T21:45:47.119Z,100534.25
2022-10-10T21:48:15.131Z,100541.25
2022-10-10T21:50:43.114Z,100541.53
2022-10-10T21:53:11.182Z,100529.72
2022-10-10T21:55:39.457Z,100517.59
2022-10-10T21:58:07.420Z,100523.94
2022-10-10T22:00:35.455Z,100529.00
2022-10-10T22:03:04.898Z,100531.69
2022-10-10T22:05:32.909Z,100534.41
2022-10-10T22:08:00.907Z,100538.72
2022-10-10T22:10:28.888Z,100533.31
2022-10-10T22:12:57.151Z,100533.31
2022-10-10T22:15:25.235Z,100531.97
2022-10-10T22:17:53.195Z,100529.00
2022-10-10T22:20:22.566Z,100531.03
2022-10-10T22:22:50.526Z,100532.06
2022-10-10T22:25:19.265Z,100529.72
2022-10-10T22:27:47.254Z,100525.53
2022-10-10T22:30:15.472Z,100532.63
2022-10-10T22:32:43.442Z,100520.00
2022-10-10T22:35:11.420Z,100530.09
2022-10-10T22:37:40.752Z,100523.47
2022-10-10T22:40:09.812Z,100521.25
2022-10-10T22:42:37.780Z,100524.97
2022-10-10T22:45:06.775Z,100528.88
2022-10-10T22:47:34.803Z,100533.06
2022-10-10T22:50:02.762Z,100527.50
2022-10-10T22:52:30.720Z,100523.41
2022-10-10T22:55:00.528Z,100526.56
2022-10-10T22:57:28.568Z,100518.63
2022-10-10T22:59:56.599Z,100524.88
2022-10-10T23:02:24.605Z,100529.56
2022-10-10T23:04:52.564Z,100530.88
2022-10-10T23:07:20.920Z,100527.44
2022-10-10T23:09:48.952Z,100519.34
2022-10-10T23:12:18.277Z,100524.16
2022-10-10T23:14:46.280Z,100522.59
2022-10-10T23:17:14.220Z,100530.31
2022-10-10T23:19:42.183Z,100531.75
2022-10-10T23:22:10.442Z,100531.53
2022-10-10T23:24:38.408Z,100522.97
2022-10-10T23:27:06.379Z,100516.06
2022-10-10T23:29:35.777Z,100511.13
2022-10-10T23:32:03.753Z,100509.81
2022-10-10T23:34:31.971Z,100517.25
2022-10-10T23:36:59.937Z,100510.16
2022-10-10T23:39:27.891Z,100512.25
2022-10-10T23:41:55.860Z,100507.56
2022-10-10T23:44:23.987Z,100516.22
2022-10-10T23:46:53.321Z,100510.34
2022-10-10T23:49:21.331Z,100504.94
2022-10-10T23:51:49.317Z,100502.91
2022-10-10T23:54:17.340Z,100499.53
2022-10-10T23:56:45.310Z,100492.81
2022-10-10T23:59:13.293Z,100498.94
